Helmsley, United Kingdom
Current Conditions -  °F | °C
As of 9:50 AM on Thursday 27 Nov 2014 (Local Time) from EGXU Reporting Station
Moderate Fog Moderate Fog  
Wind Chill:   Ceiling: 200
Heat Index:   Visibility: 0.25mi
Dew Point:   Wind: 1mph
Humidity: 100%   Direction: 10°N
Pressure: 29.62"   Gusts: NA
Location:  54.25°N, 1.06°W
Report Text: EGXU 270950Z 01001KT 0400 FG OVC002 07/07 Q1003 RED BECMG OVC001 RED
Loading
Personal Weather Stations






























Interactive Weather Map New forecast layout! Learn more

10-Day Weather Forecast

Advertisements
Track Severe Weather on mobile